sensor_id;sensor_type;location;lat;lon;timestamp;temperature;humidity
1704;DHT22;849;48.780;9.216;2023-04-03T00:01:28;8.00;97.10
1704;DHT22;849;48.780;9.216;2023-04-03T00:03:55;8.00;97.10
1704;DHT22;849;48.780;9.216;2023-04-03T00:06:21;8.30;97.10
1704;DHT22;849;48.780;9.216;2023-04-03T00:08:47;8.40;96.80
1704;DHT22;849;48.780;9.216;2023-04-03T00:11:13;8.50;96.80
1704;DHT22;849;48.780;9.216;2023-04-03T00:13:39;8.50;96.50
1704;DHT22;849;48.780;9.216;2023-04-03T00:16:10;8.60;96.40
1704;DHT22;849;48.780;9.216;2023-04-03T00:18:37;8.70;96.20
1704;DHT22;849;48.780;9.216;2023-04-03T00:21:03;8.70;96.30
1704;DHT22;849;48.780;9.216;2023-04-03T00:23:30;8.80;96.40
1704;DHT22;849;48.780;9.216;2023-04-03T00:25:58;8.90;95.90
1704;DHT22;849;48.780;9.216;2023-04-03T00:28:24;8.80;95.70
1704;DHT22;849;48.780;9.216;2023-04-03T00:30:51;8.70;95.60
1704;DHT22;849;48.780;9.216;2023-04-03T00:33:17;8.50;95.50
1704;DHT22;849;48.780;9.216;2023-04-03T00:35:43;8.50;96.10
1704;DHT22;849;48.780;9.216;2023-04-03T00:38:09;8.60;96.20
1704;DHT22;849;48.780;9.216;2023-04-03T00:40:37;8.80;96.50
1704;DHT22;849;48.780;9.216;2023-04-03T00:43:11;8.80;95.60
1704;DHT22;849;48.780;9.216;2023-04-03T00:45:40;8.90;96.50
1704;DHT22;849;48.780;9.216;2023-04-03T00:48:09;8.90;96.10
1704;DHT22;849;48.780;9.216;2023-04-03T00:50:41;8.70;96.60
1704;DHT22;849;48.780;9.216;2023-04-03T00:53:11;8.70;96.90
1704;DHT22;849;48.780;9.216;2023-04-03T00:55:38;8.80;96.90
1704;DHT22;849;48.780;9.216;2023-04-03T00:58:05;8.80;96.50
1704;DHT22;849;48.780;9.216;2023-04-03T01:00:32;8.70;94.80
1704;DHT22;849;48.780;9.216;2023-04-03T01:02:58;8.60;94.70
1704;DHT22;849;48.780;9.216;2023-04-03T01:05:25;8.70;94.70
1704;DHT22;849;48.780;9.216;2023-04-03T01:07:51;8.70;95.10
1704;DHT22;849;48.780;9.216;2023-04-03T01:10:18;8.60;94.60
1704;DHT22;849;48.780;9.216;2023-04-03T01:12:46;8.60;94.40
1704;DHT22;849;48.780;9.216;2023-04-03T01:15:21;8.60;94.60
1704;DHT22;849;48.780;9.216;2023-04-03T01:17:49;8.60;95.10
1704;DHT22;849;48.780;9.216;2023-04-03T01:25:40;8.40;95.30
1704;DHT22;849;48.780;9.216;2023-04-03T01:28:10;8.40;95.60
1704;DHT22;849;48.780;9.216;2023-04-03T01:31:04;8.40;95.00
1704;DHT22;849;48.780;9.216;2023-04-03T01:33:32;8.30;94.80
1704;DHT22;849;48.780;9.216;2023-04-03T01:35:58;8.30;95.00
1704;DHT22;849;48.780;9.216;2023-04-03T01:38:23;8.30;95.10
1704;DHT22;849;48.780;9.216;2023-04-03T01:40:49;8.30;95.50
1704;DHT22;849;48.780;9.216;2023-04-03T01:43:15;8.10;95.10
1704;DHT22;849;48.780;9.216;2023-04-03T01:45:40;7.90;95.30
1704;DHT22;849;48.780;9.216;2023-04-03T01:48:06;7.90;95.30
1704;DHT22;849;48.780;9.216;2023-04-03T01:50:32;7.50;96.00
1704;DHT22;849;48.780;9.216;2023-04-03T01:52:58;7.60;96.30
1704;DHT22;849;48.780;9.216;2023-04-03T01:55:23;7.70;96.50
1704;DHT22;849;48.780;9.216;2023-04-03T01:57:49;7.90;96.30
1704;DHT22;849;48.780;9.216;2023-04-03T02:00:15;8.10;96.00
1704;DHT22;849;48.780;9.216;2023-04-03T02:02:42;8.20;95.90
1704;DHT22;849;48.780;9.216;2023-04-03T02:05:08;8.40;96.20
1704;DHT22;849;48.780;9.216;2023-04-03T02:07:34;8.60;96.50
1704;DHT22;849;48.780;9.216;2023-04-03T02:09:59;8.30;94.60
1704;DHT22;849;48.780;9.216;2023-04-03T02:12:25;8.00;95.50
1704;DHT22;849;48.780;9.216;2023-04-03T02:14:51;7.90;95.80
1704;DHT22;849;48.780;9.216;2023-04-03T02:17:17;8.00;95.80
1704;DHT22;849;48.780;9.216;2023-04-03T02:19:43;8.00;95.60
1704;DHT22;849;48.780;9.216;2023-04-03T02:22:08;7.90;95.30
1704;DHT22;849;48.780;9.216;2023-04-03T02:24:34;8.00;95.60
1704;DHT22;849;48.780;9.216;2023-04-03T02:27:00;8.20;95.90
1704;DHT22;849;48.780;9.216;2023-04-03T02:29:25;8.40;96.50
1704;DHT22;849;48.780;9.216;2023-04-03T02:31:51;8.60;96.20
1704;DHT22;849;48.780;9.216;2023-04-03T02:34:17;8.50;95.50
1704;DHT22;849;48.780;9.216;2023-04-03T02:36:43;8.40;95.40
1704;DHT22;849;48.780;9.216;2023-04-03T02:39:08;8.50;95.80
1704;DHT22;849;48.780;9.216;2023-04-03T02:41:34;8.60;95.70
1704;DHT22;849;48.780;9.216;2023-04-03T02:44:03;8.60;95.50
1704;DHT22;849;48.780;9.216;2023-04-03T02:46:30;8.70;95.60
1704;DHT22;849;48.780;9.216;2023-04-03T02:48:55;8.50;94.70
1704;DHT22;849;48.780;9.216;2023-04-03T02:51:21;8.40;94.10
1704;DHT22;849;48.780;9.216;2023-04-03T02:53:48;7.90;94.40
1704;DHT22;849;48.780;9.216;2023-04-03T02:56:15;7.80;95.10
1704;DHT22;849;48.780;9.216;2023-04-03T02:58:42;8.00;94.40
1704;DHT22;849;48.780;9.216;2023-04-03T03:01:08;8.00;94.00
1704;DHT22;849;48.780;9.216;2023-04-03T03:03:34;8.10;94.30
1704;DHT22;849;48.780;9.216;2023-04-03T03:06:21;8.30;94.20
1704;DHT22;849;48.780;9.216;2023-04-03T03:08:46;8.30;93.20
1704;DHT22;849;48.780;9.216;2023-04-03T03:11:12;8.30;92.50
1704;DHT22;849;48.780;9.216;2023-04-03T03:13:38;8.40;92.70
1704;DHT22;849;48.780;9.216;2023-04-03T03:16:03;8.30;92.20
1704;DHT22;849;48.780;9.216;2023-04-03T03:18:29;8.30;92.20
1704;DHT22;849;48.780;9.216;2023-04-03T03:20:57;8.20;92.20
1704;DHT22;849;48.780;9.216;2023-04-03T03:23:24;8.20;92.40
1704;DHT22;849;48.780;9.216;2023-04-03T03:25:55;8.20;92.20
1704;DHT22;849;48.780;9.216;2023-04-03T03:28:21;8.10;92.10
1704;DHT22;849;48.780;9.216;2023-04-03T03:30:47;8.00;92.20
1704;DHT22;849;48.780;9.216;2023-04-03T03:33:13;8.10;92.60
1704;DHT22;849;48.780;9.216;2023-04-03T03:35:38;8.00;92.30
1704;DHT22;849;48.780;9.216;2023-04-03T03:38:04;8.00;92.80
1704;DHT22;849;48.780;9.216;2023-04-03T03:40:30;8.00;92.60
1704;DHT22;849;48.780;9.216;2023-04-03T03:42:55;8.10;92.40
1704;DHT22;849;48.780;9.216;2023-04-03T03:45:21;8.20;92.50
1704;DHT22;849;48.780;9.216;2023-04-03T03:47:46;8.20;92.20
1704;DHT22;849;48.780;9.216;2023-04-03T03:50:12;8.10;91.50
1704;DHT22;849;48.780;9.216;2023-04-03T03:52:38;8.10;91.20
1704;DHT22;849;48.780;9.216;2023-04-03T03:55:04;7.90;90.80
1704;DHT22;849;48.780;9.216;2023-04-03T03:57:30;7.90;91.20
1704;DHT22;849;48.780;9.216;2023-04-03T03:59:56;8.00;91.20
1704;DHT22;849;48.780;9.216;2023-04-03T04:02:21;7.90;90.80
1704;DHT22;849;48.780;9.216;2023-04-03T04:04:47;7.60;91.00
1704;DHT22;849;48.780;9.216;2023-04-03T04:07:13;7.60;91.50
1704;DHT22;849;48.780;9.216;2023-04-03T04:09:39;7.50;91.40
1704;DHT22;849;48.780;9.216;2023-04-03T04:12:05;7.60;91.60
1704;DHT22;849;48.780;9.216;2023-04-03T04:14:31;7.60;91.40
1704;DHT22;849;48.780;9.216;2023-04-03T04:16:56;7.70;91.10
1704;DHT22;849;48.780;9.216;2023-04-03T04:19:22;7.70;91.10
1704;DHT22;849;48.780;9.216;2023-04-03T04:21:48;7.70;90.90
1704;DHT22;849;48.780;9.216;2023-04-03T04:24:13;7.70;90.50
1704;DHT22;849;48.780;9.216;2023-04-03T04:26:39;7.80;90.50
1704;DHT22;849;48.780;9.216;2023-04-03T04:29:05;7.80;90.10
1704;DHT22;849;48.780;9.216;2023-04-03T04:31:30;7.80;89.00
1704;DHT22;849;48.780;9.216;2023-04-03T04:33:56;7.80;88.40
1704;DHT22;849;48.780;9.216;2023-04-03T04:36:22;7.70;88.90
1704;DHT22;849;48.780;9.216;2023-04-03T04:38:47;7.70;88.90
1704;DHT22;849;48.780;9.216;2023-04-03T04:41:13;7.70;88.70
1704;DHT22;849;48.780;9.216;2023-04-03T04:43:38;7.60;88.60
1704;DHT22;849;48.780;9.216;2023-04-03T04:46:09;7.70;89.00
1704;DHT22;849;48.780;9.216;2023-04-03T04:48:38;7.70;89.20
1704;DHT22;849;48.780;9.216;2023-04-03T04:51:04;7.80;89.30
1704;DHT22;849;48.780;9.216;2023-04-03T04:53:30;8.00;89.10
1704;DHT22;849;48.780;9.216;2023-04-03T04:55:55;7.90;86.70
1704;DHT22;849;48.780;9.216;2023-04-03T04:58:21;7.80;85.90
1704;DHT22;849;48.780;9.216;2023-04-03T05:00:47;7.80;85.40
1704;DHT22;849;48.780;9.216;2023-04-03T05:03:14;7.90;85.00
1704;DHT22;849;48.780;9.216;2023-04-03T05:05:40;7.90;84.50
1704;DHT22;849;48.780;9.216;2023-04-03T05:08:06;7.90;84.20
1704;DHT22;849;48.780;9.216;2023-04-03T05:10:34;7.90;84.60
1704;DHT22;849;48.780;9.216;2023-04-03T05:13:00;8.00;84.80
1704;DHT22;849;48.780;9.216;2023-04-03T05:15:25;8.10;84.90
1704;DHT22;849;48.780;9.216;2023-04-03T05:17:51;8.20;84.50
1704;DHT22;849;48.780;9.216;2023-04-03T05:20:17;8.10;84.00
1704;DHT22;849;48.780;9.216;2023-04-03T05:22:43;8.10;84.30
1704;DHT22;849;48.780;9.216;2023-04-03T05:25:09;8.00;84.10
1704;DHT22;849;48.780;9.216;2023-04-03T05:27:34;7.90;84.60
1704;DHT22;849;48.780;9.216;2023-04-03T05:30:00;7.80;85.00
1704;DHT22;849;48.780;9.216;2023-04-03T05:32:26;7.60;86.20
1704;DHT22;849;48.780;9.216;2023-04-03T05:34:53;7.40;87.00
1704;DHT22;849;48.780;9.216;2023-04-03T05:37:19;7.40;88.00
1704;DHT22;849;48.780;9.216;2023-04-03T05:39:45;7.40;87.80
1704;DHT22;849;48.780;9.216;2023-04-03T05:42:11;7.40;88.00
1704;DHT22;849;48.780;9.216;2023-04-03T05:44:37;7.10;88.60
1704;DHT22;849;48.780;9.216;2023-04-03T05:47:04;7.10;89.90
1704;DHT22;849;48.780;9.216;2023-04-03T05:49:31;7.20;89.90
1704;DHT22;849;48.780;9.216;2023-04-03T05:51:56;7.10;89.90
1704;DHT22;849;48.780;9.216;2023-04-03T05:54:28;7.00;90.30
1704;DHT22;849;48.780;9.216;2023-04-03T05:56:54;7.10;90.40
1704;DHT22;849;48.780;9.216;2023-04-03T05:59:21;7.10;90.00
1704;DHT22;849;48.780;9.216;2023-04-03T06:01:49;7.20;90.40
1704;DHT22;849;48.780;9.216;2023-04-03T06:04:15;7.30;90.70
1704;DHT22;849;48.780;9.216;2023-04-03T06:06:48;7.20;89.40
1704;DHT22;849;48.780;9.216;2023-04-03T06:09:15;7.00;90.10
1704;DHT22;849;48.780;9.216;2023-04-03T06:11:41;7.10;90.20
1704;DHT22;849;48.780;9.216;2023-04-03T06:14:08;7.20;90.00
1704;DHT22;849;48.780;9.216;2023-04-03T06:16:34;7.10;89.90
1704;DHT22;849;48.780;9.216;2023-04-03T06:19:00;7.00;90.30
1704;DHT22;849;48.780;9.216;2023-04-03T06:21:26;7.00;90.40
1704;DHT22;849;48.780;9.216;2023-04-03T06:23:52;7.00;90.30
1704;DHT22;849;48.780;9.216;2023-04-03T06:26:17;6.90;90.20
1704;DHT22;849;48.780;9.216;2023-04-03T06:28:43;6.80;90.50
1704;DHT22;849;48.780;9.216;2023-04-03T06:31:09;6.90;90.40
1704;DHT22;849;48.780;9.216;2023-04-03T06:33:34;6.90;90.60
1704;DHT22;849;48.780;9.216;2023-04-03T06:36:04;7.00;91.30
1704;DHT22;849;48.780;9.216;2023-04-03T06:38:30;7.20;91.40
1704;DHT22;849;48.780;9.216;2023-04-03T06:40:56;7.30;90.90
1704;DHT22;849;48.780;9.216;2023-04-03T06:43:22;7.30;90.20
1704;DHT22;849;48.780;9.216;2023-04-03T06:45:48;7.10;90.50
1704;DHT22;849;48.780;9.216;2023-04-03T06:48:13;7.00;90.40
1704;DHT22;849;48.780;9.216;2023-04-03T06:50:39;6.90;90.80
1704;DHT22;849;48.780;9.216;2023-04-03T06:53:05;7.00;91.00
1704;DHT22;849;48.780;9.216;2023-04-03T06:55:32;7.00;91.20
1704;DHT22;849;48.780;9.216;2023-04-03T06:57:58;6.90;91.00
1704;DHT22;849;48.780;9.216;2023-04-03T07:00:24;6.80;91.50
1704;DHT22;849;48.780;9.216;2023-04-03T07:02:50;6.80;91.50
1704;DHT22;849;48.780;9.216;2023-04-03T07:05:16;6.90;91.30
1704;DHT22;849;48.780;9.216;2023-04-03T07:07:41;7.10;91.60
1704;DHT22;849;48.780;9.216;2023-04-03T07:10:07;7.10;91.20
1704;DHT22;849;48.780;9.216;2023-04-03T07:12:33;7.20;91.30
1704;DHT22;849;48.780;9.216;2023-04-03T07:14:59;7.10;90.90
1704;DHT22;849;48.780;9.216;2023-04-03T07:17:25;7.20;91.30
1704;DHT22;849;48.780;9.216;2023-04-03T07:19:51;7.20;91.00
1704;DHT22;849;48.780;9.216;2023-04-03T07:22:17;7.10;91.20
1704;DHT22;849;48.780;9.216;2023-04-03T07:24:43;7.10;90.90
1704;DHT22;849;48.780;9.216;2023-04-03T07:27:08;7.10;91.70
1704;DHT22;849;48.780;9.216;2023-04-03T07:29:35;7.10;91.80
1704;DHT22;849;48.780;9.216;2023-04-03T07:32:01;7.20;91.50
1704;DHT22;849;48.780;9.216;2023-04-03T07:34:27;7.50;91.70
1704;DHT22;849;48.780;9.216;2023-04-03T07:36:53;7.60;91.50
1704;DHT22;849;48.780;9.216;2023-04-03T07:39:18;7.50;91.00
1704;DHT22;849;48.780;9.216;2023-04-03T07:41:44;7.50;91.00
1704;DHT22;849;48.780;9.216;2023-04-03T07:44:10;7.60;91.40
1704;DHT22;849;48.780;9.216;2023-04-03T07:46:36;7.70;91.30
1704;DHT22;849;48.780;9.216;2023-04-03T07:49:02;7.80;91.20
1704;DHT22;849;48.780;9.216;2023-04-03T07:51:27;7.80;90.90
1704;DHT22;849;48.780;9.216;2023-04-03T07:53:55;7.60;90.80
1704;DHT22;849;48.780;9.216;2023-04-03T07:56:21;7.40;90.70
1704;DHT22;849;48.780;9.216;2023-04-03T07:58:46;7.40;90.70
1704;DHT22;849;48.780;9.216;2023-04-03T08:01:12;7.50;91.10
1704;DHT22;849;48.780;9.216;2023-04-03T08:03:39;7.60;91.50
1704;DHT22;849;48.780;9.216;2023-04-03T08:06:06;7.60;90.60
1704;DHT22;849;48.780;9.216;2023-04-03T08:08:33;7.60;90.30
1704;DHT22;849;48.780;9.216;2023-04-03T08:11:00;7.60;91.00
1704;DHT22;849;48.780;9.216;2023-04-03T08:13:26;7.60;91.00
1704;DHT22;849;48.780;9.216;2023-04-03T08:15:52;7.60;91.20
1704;DHT22;849;48.780;9.216;2023-04-03T08:18:18;7.50;91.30
1704;DHT22;849;48.780;9.216;2023-04-03T08:20:46;7.50;91.70
1704;DHT22;849;48.780;9.216;2023-04-03T08:23:12;7.60;91.30
1704;DHT22;849;48.780;9.216;2023-04-03T08:25:42;7.60;91.60
1704;DHT22;849;48.780;9.216;2023-04-03T08:28:09;7.60;91.90
1704;DHT22;849;48.780;9.216;2023-04-03T08:30:35;7.60;91.80
1704;DHT22;849;48.780;9.216;2023-04-03T08:33:03;7.60;91.70
1704;DHT22;849;48.780;9.216;2023-04-03T08:35:29;7.50;91.80
1704;DHT22;849;48.780;9.216;2023-04-03T08:37:55;7.60;92.70
1704;DHT22;849;48.780;9.216;2023-04-03T08:40:22;7.70;92.20
1704;DHT22;849;48.780;9.216;2023-04-03T08:48:14;7.80;91.50
1704;DHT22;849;48.780;9.216;2023-04-03T08:50:44;7.80;91.50
1704;DHT22;849;48.780;9.216;2023-04-03T08:53:17;8.00;92.20
1704;DHT22;849;48.780;9.216;2023-04-03T08:55:47;8.10;92.00
1704;DHT22;849;48.780;9.216;2023-04-03T08:58:22;8.30;91.60
1704;DHT22;849;48.780;9.216;2023-04-03T09:01:06;8.30;90.70
1704;DHT22;849;48.780;9.216;2023-04-03T09:03:37;8.20;91.30
1704;DHT22;849;48.780;9.216;2023-04-03T09:11:23;8.20;90.80
1704;DHT22;849;48.780;9.216;2023-04-03T09:14:53;8.20;90.60
1704;DHT22;849;48.780;9.216;2023-04-03T09:16:55;8.30;90.30
1704;DHT22;849;48.780;9.216;2023-04-03T09:19:35;8.40;90.80
1704;DHT22;849;48.780;9.216;2023-04-03T09:22:24;8.50;90.70
1704;DHT22;849;48.780;9.216;2023-04-03T09:24:59;8.60;86.60
1704;DHT22;849;48.780;9.216;2023-04-03T09:27:27;8.40;84.30
1704;DHT22;849;48.780;9.216;2023-04-03T09:29:55;8.50;83.70
1704;DHT22;849;48.780;9.216;2023-04-03T09:34:53;8.50;85.10
1704;DHT22;849;48.780;9.216;2023-04-03T09:37:40;8.50;85.30
1704;DHT22;849;48.780;9.216;2023-04-03T09:42:51;8.50;86.20
1704;DHT22;849;48.780;9.216;2023-04-03T09:45:28;8.60;86.20
1704;DHT22;849;48.780;9.216;2023-04-03T09:48:12;8.60;87.00
1704;DHT22;849;48.780;9.216;2023-04-03T09:53:40;8.50;85.70
1704;DHT22;849;48.780;9.216;2023-04-03T09:56:19;8.70;87.00
1704;DHT22;849;48.780;9.216;2023-04-03T09:59:08;8.60;84.40
1704;DHT22;849;48.780;9.216;2023-04-03T10:01:38;8.60;84.50
1704;DHT22;849;48.780;9.216;2023-04-03T10:04:14;8.60;85.80
1704;DHT22;849;48.780;9.216;2023-04-03T10:06:47;8.70;85.80
1704;DHT22;849;48.780;9.216;2023-04-03T10:12:11;8.60;84.10
1704;DHT22;849;48.780;9.216;2023-04-03T10:14:54;8.30;84.80
1704;DHT22;849;48.780;9.216;2023-04-03T10:23:45;8.80;84.50
1704;DHT22;849;48.780;9.216;2023-04-03T10:31:22;9.10;83.20
1704;DHT22;849;48.780;9.216;2023-04-03T10:36:39;8.90;83.30
1704;DHT22;849;48.780;9.216;2023-04-03T10:42:01;8.90;83.30
1704;DHT22;849;48.780;9.216;2023-04-03T10:44:49;8.60;82.50
1704;DHT22;849;48.780;9.216;2023-04-03T10:47:29;8.60;83.90
1704;DHT22;849;48.780;9.216;2023-04-03T10:50:29;8.40;82.70
1704;DHT22;849;48.780;9.216;2023-04-03T10:53:04;8.30;83.20
1704;DHT22;849;48.780;9.216;2023-04-03T10:56:01;8.30;83.10
1704;DHT22;849;48.780;9.216;2023-04-03T10:58:35;8.30;82.20
1704;DHT22;849;48.780;9.216;2023-04-03T11:01:07;8.30;81.30
1704;DHT22;849;48.780;9.216;2023-04-03T11:03:49;8.30;80.50
1704;DHT22;849;48.780;9.216;2023-04-03T11:06:18;8.30;82.70
1704;DHT22;849;48.780;9.216;2023-04-03T11:11:34;8.60;80.10
1704;DHT22;849;48.780;9.216;2023-04-03T11:14:18;8.80;79.60
1704;DHT22;849;48.780;9.216;2023-04-03T11:16:50;9.00;77.40
1704;DHT22;849;48.780;9.216;2023-04-03T11:19:21;9.10;74.40
1704;DHT22;849;48.780;9.216;2023-04-03T11:22:10;9.20;73.60
1704;DHT22;849;48.780;9.216;2023-04-03T11:24:42;8.90;71.10
1704;DHT22;849;48.780;9.216;2023-04-03T11:27:17;8.80;73.90
1704;DHT22;849;48.780;9.216;2023-04-03T11:29:46;8.90;72.80
1704;DHT22;849;48.780;9.216;2023-04-03T11:32:45;9.00;73.00
1704;DHT22;849;48.780;9.216;2023-04-03T11:35:14;9.10;73.40
1704;DHT22;849;48.780;9.216;2023-04-03T11:37:52;8.90;74.70
1704;DHT22;849;48.780;9.216;2023-04-03T11:40:24;9.00;75.20
1704;DHT22;849;48.780;9.216;2023-04-03T11:42:55;9.00;75.70
1704;DHT22;849;48.780;9.216;2023-04-03T11:45:33;8.90;76.20
1704;DHT22;849;48.780;9.216;2023-04-03T11:53:39;8.70;75.10
1704;DHT22;849;48.780;9.216;2023-04-03T12:02:00;8.80;73.40
1704;DHT22;849;48.780;9.216;2023-04-03T12:04:27;8.90;73.50
1704;DHT22;849;48.780;9.216;2023-04-03T12:09:59;9.00;74.20
1704;DHT22;849;48.780;9.216;2023-04-03T12:12:31;8.90;73.00
1704;DHT22;849;48.780;9.216;2023-04-03T12:17:42;8.90;73.70
1704;DHT22;849;48.780;9.216;2023-04-03T12:23:33;8.40;73.10
1704;DHT22;849;48.780;9.216;2023-04-03T12:26:08;8.50;74.30
1704;DHT22;849;48.780;9.216;2023-04-03T12:28:45;8.60;75.00
1704;DHT22;849;48.780;9.216;2023-04-03T12:31:14;8.90;75.60
1704;DHT22;849;48.780;9.216;2023-04-03T12:33:50;9.00;71.70
1704;DHT22;849;48.780;9.216;2023-04-03T12:36:59;9.10;71.30
1704;DHT22;849;48.780;9.216;2023-04-03T12:39:44;9.30;71.40
1704;DHT22;849;48.780;9.216;2023-04-03T12:45:21;9.10;67.10
1704;DHT22;849;48.780;9.216;2023-04-03T12:47:49;9.10;66.60
1704;DHT22;849;48.780;9.216;2023-04-03T12:50:32;9.20;68.50
1704;DHT22;849;48.780;9.216;2023-04-03T12:53:05;9.20;68.00
1704;DHT22;849;48.780;9.216;2023-04-03T12:55:31;9.10;68.20
1704;DHT22;849;48.780;9.216;2023-04-03T12:57:57;9.20;70.90
1704;DHT22;849;48.780;9.216;2023-04-03T13:00:38;9.20;68.90
1704;DHT22;849;48.780;9.216;2023-04-03T13:03:06;9.20;69.00
1704;DHT22;849;48.780;9.216;2023-04-03T13:05:32;9.20;68.00
1704;DHT22;849;48.780;9.216;2023-04-03T13:08:05;9.30;68.30
1704;DHT22;849;48.780;9.216;2023-04-03T13:10:46;9.30;71.60
1704;DHT22;849;48.780;9.216;2023-04-03T13:13:14;9.40;65.10
1704;DHT22;849;48.780;9.216;2023-04-03T13:15:44;9.50;65.00
1704;DHT22;849;48.780;9.216;2023-04-03T13:18:29;9.70;65.00
1704;DHT22;849;48.780;9.216;2023-04-03T13:21:07;9.50;64.40
1704;DHT22;849;48.780;9.216;2023-04-03T13:23:40;9.40;63.90
1704;DHT22;849;48.780;9.216;2023-04-03T13:26:06;9.30;64.50
1704;DHT22;849;48.780;9.216;2023-04-03T13:28:33;9.40;65.80
1704;DHT22;849;48.780;9.216;2023-04-03T13:33:30;9.40;64.60
1704;DHT22;849;48.780;9.216;2023-04-03T13:36:27;9.20;63.30
1704;DHT22;849;48.780;9.216;2023-04-03T13:39:04;9.20;62.80
1704;DHT22;849;48.780;9.216;2023-04-03T13:41:36;9.30;66.20
1704;DHT22;849;48.780;9.216;2023-04-03T13:44:37;9.50;65.30
1704;DHT22;849;48.780;9.216;2023-04-03T13:49:44;10.00;60.20
1704;DHT22;849;48.780;9.216;2023-04-03T13:52:25;9.90;60.40
1704;DHT22;849;48.780;9.216;2023-04-03T13:54:58;10.00;58.60
1704;DHT22;849;48.780;9.216;2023-04-03T13:57:24;9.90;60.10
1704;DHT22;849;48.780;9.216;2023-04-03T13:59:50;9.90;62.70
1704;DHT22;849;48.780;9.216;2023-04-03T14:04:47;9.90;60.00
1704;DHT22;849;48.780;9.216;2023-04-03T14:07:14;9.90;61.30
1704;DHT22;849;48.780;9.216;2023-04-03T14:09:41;9.90;60.60
1704;DHT22;849;48.780;9.216;2023-04-03T14:12:15;9.80;59.90
1704;DHT22;849;48.780;9.216;2023-04-03T14:14:41;9.70;61.80
1704;DHT22;849;48.780;9.216;2023-04-03T14:17:18;9.60;61.00
1704;DHT22;849;48.780;9.216;2023-04-03T14:19:45;9.40;60.70
1704;DHT22;849;48.780;9.216;2023-04-03T14:22:18;9.30;60.60
1704;DHT22;849;48.780;9.216;2023-04-03T14:24:45;9.30;60.70
1704;DHT22;849;48.780;9.216;2023-04-03T14:27:26;9.30;62.10
1704;DHT22;849;48.780;9.216;2023-04-03T14:29:53;9.50;60.90
1704;DHT22;849;48.780;9.216;2023-04-03T14:32:21;9.50;60.50
1704;DHT22;849;48.780;9.216;2023-04-03T14:34:48;9.60;61.40
1704;DHT22;849;48.780;9.216;2023-04-03T14:37:17;9.80;60.80
1704;DHT22;849;48.780;9.216;2023-04-03T14:39:43;10.10;58.80
1704;DHT22;849;48.780;9.216;2023-04-03T14:42:17;10.20;57.60
1704;DHT22;849;48.780;9.216;2023-04-03T14:44:44;10.20;58.40
1704;DHT22;849;48.780;9.216;2023-04-03T14:47:15;10.00;57.20
1704;DHT22;849;48.780;9.216;2023-04-03T14:49:41;10.20;59.10
1704;DHT22;849;48.780;9.216;2023-04-03T14:52:20;10.30;58.20
1704;DHT22;849;48.780;9.216;2023-04-03T14:54:48;10.20;56.50
1704;DHT22;849;48.780;9.216;2023-04-03T14:57:15;10.00;56.90
1704;DHT22;849;48.780;9.216;2023-04-03T14:59:43;9.90;58.70
1704;DHT22;849;48.780;9.216;2023-04-03T15:02:36;10.00;58.60
1704;DHT22;849;48.780;9.216;2023-04-03T15:05:05;10.20;58.70
1704;DHT22;849;48.780;9.216;2023-04-03T15:07:37;10.20;57.30
1704;DHT22;849;48.780;9.216;2023-04-03T15:10:18;10.10;56.90
1704;DHT22;849;48.780;9.216;2023-04-03T15:12:45;10.00;57.30
1704;DHT22;849;48.780;9.216;2023-04-03T15:15:11;9.80;57.10
1704;DHT22;849;48.780;9.216;2023-04-03T15:17:37;9.70;57.10
1704;DHT22;849;48.780;9.216;2023-04-03T15:20:03;9.70;57.00
1704;DHT22;849;48.780;9.216;2023-04-03T15:22:29;9.90;56.90
1704;DHT22;849;48.780;9.216;2023-04-03T15:24:54;10.00;54.20
1704;DHT22;849;48.780;9.216;2023-04-03T15:27:20;10.20;55.00
1704;DHT22;849;48.780;9.216;2023-04-03T15:29:46;10.30;54.10
1704;DHT22;849;48.780;9.216;2023-04-03T15:32:12;10.20;53.80
1704;DHT22;849;48.780;9.216;2023-04-03T15:34:38;10.10;53.60
1704;DHT22;849;48.780;9.216;2023-04-03T15:37:04;9.70;54.30
1704;DHT22;849;48.780;9.216;2023-04-03T15:39:30;9.30;55.40
1704;DHT22;849;48.780;9.216;2023-04-03T15:41:56;9.20;56.00
1704;DHT22;849;48.780;9.216;2023-04-03T15:44:25;9.20;56.40
1704;DHT22;849;48.780;9.216;2023-04-03T15:46:50;9.50;56.60
1704;DHT22;849;48.780;9.216;2023-04-03T15:49:18;11.60;54.50
1704;DHT22;849;48.780;9.216;2023-04-03T15:51:44;14.20;50.90
1704;DHT22;849;48.780;9.216;2023-04-03T15:54:10;15.50;46.80
1704;DHT22;849;48.780;9.216;2023-04-03T15:56:35;16.30;44.30
1704;DHT22;849;48.780;9.216;2023-04-03T15:59:01;15.70;44.20
1704;DHT22;849;48.780;9.216;2023-04-03T16:01:27;14.60;44.80
1704;DHT22;849;48.780;9.216;2023-04-03T16:03:53;14.20;45.50
1704;DHT22;849;48.780;9.216;2023-04-03T16:06:19;14.30;47.10
1704;DHT22;849;48.780;9.216;2023-04-03T16:08:46;15.10;46.20
1704;DHT22;849;48.780;9.216;2023-04-03T16:11:13;14.80;45.00
1704;DHT22;849;48.780;9.216;2023-04-03T16:13:39;14.20;45.60
1704;DHT22;849;48.780;9.216;2023-04-03T16:16:06;13.60;45.90
1704;DHT22;849;48.780;9.216;2023-04-03T16:18:34;12.80;46.20
1704;DHT22;849;48.780;9.216;2023-04-03T16:21:00;12.00;46.70
1704;DHT22;849;48.780;9.216;2023-04-03T16:23:26;11.60;47.70
1704;DHT22;849;48.780;9.216;2023-04-03T16:25:51;11.00;47.40
1704;DHT22;849;48.780;9.216;2023-04-03T16:28:18;10.70;48.60
1704;DHT22;849;48.780;9.216;2023-04-03T16:30:44;10.60;48.10
1704;DHT22;849;48.780;9.216;2023-04-03T16:33:12;10.30;47.90
1704;DHT22;849;48.780;9.216;2023-04-03T16:35:38;9.90;48.90
1704;DHT22;849;48.780;9.216;2023-04-03T16:38:04;10.30;49.50
1704;DHT22;849;48.780;9.216;2023-04-03T16:40:30;10.90;48.40
1704;DHT22;849;48.780;9.216;2023-04-03T16:42:55;11.20;47.90
1704;DHT22;849;48.780;9.216;2023-04-03T16:45:21;11.20;47.80
1704;DHT22;849;48.780;9.216;2023-04-03T16:47:47;11.10;47.70
1704;DHT22;849;48.780;9.216;2023-04-03T16:50:12;10.90;49.10
1704;DHT22;849;48.780;9.216;2023-04-03T16:52:38;10.80;49.40
1704;DHT22;849;48.780;9.216;2023-04-03T16:55:04;10.80;49.40
1704;DHT22;849;48.780;9.216;2023-04-03T16:57:30;10.40;48.10
1704;DHT22;849;48.780;9.216;2023-04-03T16:59:55;10.30;49.20
1704;DHT22;849;48.780;9.216;2023-04-03T17:02:22;10.40;49.50
1704;DHT22;849;48.780;9.216;2023-04-03T17:04:51;10.60;49.60
1704;DHT22;849;48.780;9.216;2023-04-03T17:07:18;10.70;50.20
1704;DHT22;849;48.780;9.216;2023-04-03T17:09:44;10.60;49.60
1704;DHT22;849;48.780;9.216;2023-04-03T17:12:10;10.30;50.40
1704;DHT22;849;48.780;9.216;2023-04-03T17:14:35;10.20;51.10
1704;DHT22;849;48.780;9.216;2023-04-03T17:17:02;10.00;50.30
1704;DHT22;849;48.780;9.216;2023-04-03T17:19:28;9.80;51.00
1704;DHT22;849;48.780;9.216;2023-04-03T17:21:54;9.80;51.70
1704;DHT22;849;48.780;9.216;2023-04-03T17:24:20;9.80;52.00
1704;DHT22;849;48.780;9.216;2023-04-03T17:26:46;9.80;52.50
1704;DHT22;849;48.780;9.216;2023-04-03T17:29:12;9.70;51.50
1704;DHT22;849;48.780;9.216;2023-04-03T17:31:37;9.70;51.70
1704;DHT22;849;48.780;9.216;2023-04-03T17:34:03;9.70;51.30
1704;DHT22;849;48.780;9.216;2023-04-03T17:36:30;9.70;51.80
1704;DHT22;849;48.780;9.216;2023-04-03T17:38:56;9.70;52.20
1704;DHT22;849;48.780;9.216;2023-04-03T17:41:22;9.60;52.00
1704;DHT22;849;48.780;9.216;2023-04-03T17:43:48;9.60;52.70
1704;DHT22;849;48.780;9.216;2023-04-03T17:46:14;9.60;52.90
1704;DHT22;849;48.780;9.216;2023-04-03T17:48:41;9.60;53.00
1704;DHT22;849;48.780;9.216;2023-04-03T17:51:10;9.60;52.50
1704;DHT22;849;48.780;9.216;2023-04-03T17:53:36;9.60;52.80
1704;DHT22;849;48.780;9.216;2023-04-03T17:56:11;9.60;52.80
1704;DHT22;849;48.780;9.216;2023-04-03T17:58:36;9.70;53.10
1704;DHT22;849;48.780;9.216;2023-04-03T18:03:34;9.60;52.80